createdAt,value
2023-03-13T00:02:53.966Z,22.27
2023-03-13T00:07:57.853Z,26.50
2023-03-13T00:13:00.435Z,17.70
2023-03-13T00:18:02.987Z,17.03
2023-03-13T00:23:07.159Z,21.97
2023-03-13T00:28:09.770Z,17.55
2023-03-13T00:33:12.342Z,24.17
2023-03-13T00:38:16.267Z,21.43
2023-03-13T00:43:18.819Z,26.27
2023-03-13T00:48:21.424Z,20.80
2023-03-13T00:53:25.562Z,27.80
2023-03-13T00:58:30.269Z,20.58
2023-03-13T01:03:32.835Z,19.20
2023-03-13T01:08:37.396Z,25.63
2023-03-13T01:13:40.191Z,20.02
2023-03-13T01:18:45.042Z,18.95
2023-03-13T01:23:50.271Z,19.55
2023-03-13T01:28:53.237Z,20.98
2023-03-13T01:33:57.860Z,28.23
2023-03-13T01:39:02.378Z,25.15
2023-03-13T01:44:05.152Z,25.10
2023-03-13T01:49:11.014Z,23.37
2023-03-13T01:54:19.988Z,23.55
2023-03-13T01:59:26.101Z,20.42
2023-03-13T02:04:32.650Z,19.30
2023-03-13T02:09:38.046Z,22.75
2023-03-13T02:14:44.707Z,20.42
2023-03-13T02:19:48.905Z,19.73
2023-03-13T02:24:57.878Z,14.90
2023-03-13T02:30:01.857Z,23.70
2023-03-13T02:35:09.335Z,16.85
2023-03-13T02:40:15.582Z,19.63
2023-03-13T02:45:19.849Z,17.27
2023-03-13T02:50:22.782Z,18.55
2023-03-13T02:55:29.456Z,14.30
2023-03-13T03:00:33.486Z,13.05
2023-03-13T03:05:37.074Z,14.65
2023-03-13T03:10:39.632Z,15.35
2023-03-13T03:15:43.659Z,11.30
2023-03-13T03:20:46.236Z,13.48
2023-03-13T03:25:48.828Z,15.63
2023-03-13T03:30:54.181Z,12.00
2023-03-13T03:36:01.258Z,18.67
2023-03-13T03:41:03.966Z,14.93
2023-03-13T03:46:08.899Z,14.53
2023-03-13T03:51:11.595Z,14.02
2023-03-13T03:56:14.451Z,13.43
2023-03-13T04:01:18.341Z,12.88
2023-03-13T04:06:20.951Z,13.77
2023-03-13T04:11:23.577Z,11.27
2023-03-13T04:16:27.550Z,11.83
2023-03-13T04:21:31.187Z,12.77
2023-03-13T04:26:33.761Z,14.37
2023-03-13T04:31:37.674Z,13.70
2023-03-13T04:36:40.233Z,13.68
2023-03-13T04:41:42.747Z,11.97
2023-03-13T04:46:46.913Z,13.07
2023-03-13T04:51:49.462Z,13.82
2023-03-13T04:56:52.029Z,14.53
2023-03-13T05:01:55.932Z,13.67
2023-03-13T05:06:58.545Z,13.23
2023-03-13T05:12:01.148Z,16.07
2023-03-13T05:17:05.106Z,12.67
2023-03-13T05:22:07.650Z,14.60
2023-03-13T05:27:10.217Z,10.83
2023-03-13T05:32:14.220Z,12.27
2023-03-13T05:37:16.783Z,13.38
2023-03-13T05:42:19.406Z,16.60
2023-03-13T05:47:23.329Z,13.87
2023-03-13T05:52:25.877Z,13.63
2023-03-13T05:57:28.426Z,11.53
2023-03-13T06:02:32.416Z,15.33
2023-03-13T06:07:36.011Z,10.68
2023-03-13T06:12:39.137Z,9.38
2023-03-13T06:17:43.017Z,8.75
2023-03-13T06:22:45.541Z,12.10
2023-03-13T06:27:48.088Z,9.57
2023-03-13T06:32:52.131Z,11.37
2023-03-13T06:37:55.003Z,10.50
2023-03-13T06:42:57.591Z,16.45
2023-03-13T06:48:01.593Z,9.40
2023-03-13T06:53:04.196Z,8.55
2023-03-13T06:58:06.779Z,11.33
2023-03-13T07:03:11.125Z,10.20
2023-03-13T07:08:13.748Z,10.13
2023-03-13T07:13:16.325Z,7.73
2023-03-13T07:18:20.402Z,7.80
2023-03-13T07:23:23.317Z,7.97
2023-03-13T07:28:26.663Z,10.07
2023-03-13T07:38:33.182Z,6.40
2023-03-13T07:43:35.820Z,8.70
2023-03-13T07:48:41.079Z,8.05
2023-03-13T07:53:43.819Z,6.45
2023-03-13T07:58:46.767Z,11.18
2023-03-13T08:03:51.477Z,6.15
2023-03-13T08:08:54.539Z,7.22
2023-03-13T08:13:58.448Z,4.05
2023-03-13T08:19:05.057Z,5.07
2023-03-13T08:24:10.628Z,7.20
2023-03-13T08:29:15.303Z,4.30
2023-03-13T08:34:19.803Z,4.15
2023-03-13T08:39:22.488Z,7.80
2023-03-13T08:44:25.130Z,5.72
2023-03-13T08:49:30.022Z,6.03
2023-03-13T08:54:32.746Z,5.20
2023-03-13T08:59:35.358Z,6.65
2023-03-13T09:04:39.444Z,4.78
2023-03-13T09:09:42.231Z,4.63
2023-03-13T09:14:44.800Z,6.20
2023-03-13T09:19:59.665Z,5.65
2023-03-13T09:25:02.958Z,5.93
2023-03-13T09:30:06.518Z,3.15
2023-03-13T09:35:10.822Z,4.00
2023-03-13T09:40:16.850Z,2.10
2023-03-13T09:45:31.223Z,2.40
2023-03-13T09:50:37.598Z,3.00
2023-03-13T09:55:43.030Z,2.22
2023-03-13T10:00:49.385Z,2.83
2023-03-13T10:05:57.142Z,3.75
2023-03-13T10:11:05.786Z,4.40
2023-03-13T10:16:12.523Z,2.60
2023-03-13T10:21:20.659Z,4.88
2023-03-13T10:26:28.751Z,3.03
2023-03-13T10:31:34.133Z,7.45
2023-03-13T10:36:43.547Z,1.50
2023-03-13T10:41:46.468Z,3.78
2023-03-13T10:51:55.669Z,3.78
2023-03-13T10:57:27.999Z,3.03
2023-03-13T11:02:35.465Z,2.75
2023-03-13T11:07:40.559Z,4.13
2023-03-13T11:12:46.622Z,1.33
2023-03-13T11:17:53.549Z,2.47
2023-03-13T11:23:13.176Z,6.15
2023-03-13T11:28:32.412Z,3.92
2023-03-13T11:33:40.440Z,3.00
2023-03-13T11:38:49.850Z,3.00
2023-03-13T11:44:17.917Z,4.00
2023-03-13T11:49:47.427Z,5.28
2023-03-13T11:55:04.253Z,4.30
2023-03-13T12:00:22.886Z,3.65
2023-03-13T12:05:28.935Z,2.10
2023-03-13T12:10:39.669Z,4.57
2023-03-13T12:15:45.461Z,2.67
2023-03-13T12:20:57.657Z,3.85
2023-03-13T12:26:05.553Z,1.93
2023-03-13T12:31:18.579Z,3.30
2023-03-13T12:36:26.234Z,1.38
2023-03-13T12:41:34.272Z,4.13
2023-03-13T12:46:42.136Z,3.55
2023-03-13T12:52:02.541Z,4.15
2023-03-13T12:57:35.082Z,2.13
2023-03-13T13:02:38.014Z,2.22
2023-03-13T13:07:40.873Z,1.83
2023-03-13T13:12:46.019Z,3.35
2023-03-13T13:18:17.167Z,2.42
2023-03-13T13:23:33.711Z,4.28
2023-03-13T13:28:37.822Z,3.25
2023-03-13T13:33:41.622Z,3.03
2023-03-13T13:38:44.471Z,3.63
2023-03-13T13:43:49.891Z,2.55
2023-03-13T13:49:09.290Z,4.85
2023-03-13T13:54:33.514Z,3.17
2023-03-13T13:59:44.461Z,2.40
2023-03-13T14:04:52.429Z,2.05
2023-03-13T14:10:02.725Z,4.13
2023-03-13T14:15:15.736Z,3.67
2023-03-13T14:20:23.397Z,3.90
2023-03-13T14:25:26.818Z,6.18
2023-03-13T14:30:30.758Z,3.97
2023-03-13T14:35:33.599Z,3.45
2023-03-13T14:40:39.509Z,3.60
2023-03-13T14:45:43.647Z,3.03
2023-03-13T14:50:46.389Z,5.35
2023-03-13T15:00:53.842Z,4.25
2023-03-13T15:06:08.958Z,2.78
2023-03-13T15:11:21.044Z,1.95
2023-03-13T15:16:27.486Z,7.15
2023-03-13T15:21:31.439Z,3.88
2023-03-13T15:26:34.007Z,4.47
2023-03-13T15:31:39.698Z,5.63
2023-03-13T15:36:42.717Z,6.53
2023-03-13T15:41:45.324Z,5.05
2023-03-13T15:46:49.548Z,6.03
2023-03-13T15:51:53.559Z,7.13
2023-03-13T15:56:56.274Z,2.70
2023-03-13T16:02:00.209Z,3.50
2023-03-13T16:07:02.834Z,4.18
2023-03-13T16:12:05.835Z,6.80
2023-03-13T16:17:15.289Z,2.88
2023-03-13T16:22:18.073Z,3.53
2023-03-13T16:32:25.749Z,8.63
2023-03-13T16:37:28.393Z,7.55
2023-03-13T16:42:31.058Z,7.88
2023-03-13T16:47:35.960Z,5.93
2023-03-13T16:52:38.578Z,7.07
2023-03-13T16:57:41.210Z,5.20
2023-03-13T17:02:45.286Z,5.60
2023-03-13T17:07:50.288Z,6.28
2023-03-13T17:12:53.053Z,5.25
2023-03-13T17:17:57.612Z,8.73
2023-03-13T17:23:01.098Z,9.23
2023-03-13T17:28:03.798Z,6.47
2023-03-13T17:33:07.779Z,8.77
2023-03-13T17:38:11.346Z,9.20
2023-03-13T17:43:14.478Z,10.88
2023-03-13T17:48:18.426Z,11.63
2023-03-13T17:53:20.991Z,11.38
2023-03-13T17:58:23.618Z,12.63
2023-03-13T18:03:27.547Z,14.93
2023-03-13T18:08:30.515Z,12.30
2023-03-13T18:13:33.120Z,9.48
2023-03-13T18:18:37.053Z,13.20
2023-03-13T18:23:39.677Z,15.73
2023-03-13T18:28:43.244Z,13.18
2023-03-13T18:33:48.053Z,16.67
2023-03-13T18:38:50.918Z,12.68
2023-03-13T18:43:54.473Z,17.50
2023-03-13T18:48:58.892Z,14.07
2023-03-13T18:54:01.489Z,12.10
2023-03-13T18:59:04.094Z,20.87
2023-03-13T19:04:08.184Z,12.77
2023-03-13T19:09:41.076Z,10.48
2023-03-13T19:14:37.197Z,17.13
2023-03-13T19:19:41.347Z,14.73
2023-03-13T19:24:43.940Z,18.25
2023-03-13T19:29:47.127Z,37.23
2023-03-13T19:34:51.079Z,28.60
2023-03-13T19:39:53.684Z,19.65
2023-03-13T19:44:56.304Z,20.83
2023-03-13T19:50:00.378Z,39.50
2023-03-13T19:55:05.143Z,56.05
2023-03-13T20:00:13.992Z,31.45
2023-03-13T20:05:18.123Z,13.93
2023-03-13T20:10:21.333Z,20.58
2023-03-13T20:15:24.261Z,14.13
2023-03-13T20:20:29.248Z,12.68
2023-03-13T20:25:32.008Z,17.15
2023-03-13T20:30:34.837Z,12.52
2023-03-13T20:35:39.645Z,16.88
2023-03-13T20:40:42.319Z,21.13
2023-03-13T20:45:45.722Z,19.43
2023-03-13T20:55:55.244Z,17.80
2023-03-13T21:00:59.156Z,13.35
2023-03-13T21:06:09.338Z,27.58
2023-03-13T21:11:13.175Z,17.60
2023-03-13T21:16:16.933Z,16.60
2023-03-13T21:21:22.377Z,21.38
2023-03-13T21:26:25.003Z,16.55
2023-03-13T21:31:27.658Z,17.57
2023-03-13T21:36:31.732Z,15.88
2023-03-13T21:41:35.271Z,22.13
2023-03-13T21:46:37.896Z,17.67
2023-03-13T21:51:41.834Z,28.33
2023-03-13T21:56:45.443Z,15.65
2023-03-13T22:01:48.177Z,24.10
2023-03-13T22:06:52.163Z,18.00
2023-03-13T22:11:54.730Z,16.75
2023-03-13T22:16:57.291Z,17.43
2023-03-13T22:22:01.172Z,20.90
2023-03-13T22:27:03.851Z,22.95
2023-03-13T22:32:06.666Z,19.03
2023-03-13T22:37:10.579Z,16.42
2023-03-13T22:42:13.129Z,16.05
2023-03-13T22:47:15.767Z,17.10
2023-03-13T22:52:20.057Z,21.33
2023-03-13T22:57:22.702Z,16.70
2023-03-13T23:02:25.452Z,12.57
2023-03-13T23:07:30.636Z,8.82
2023-03-13T23:12:33.247Z,9.85
2023-03-13T23:17:37.181Z,9.80
2023-03-13T23:22:42.429Z,10.02
2023-03-13T23:27:45.892Z,11.73
2023-03-13T23:32:49.302Z,9.95
2023-03-13T23:42:56.654Z,8.48
2023-03-13T23:47:59.245Z,9.90
2023-03-13T23:53:03.223Z,7.40
2023-03-13T23:58:05.898Z,8.98
